Adra, Spain
Current Conditions -  °F | °C
As of 10:30 PM on Monday 20 Oct 2014 (Local Time) from LEAM Reporting Station
Clear Clear  
Wind Chill: 72°   Ceiling: Unl
Heat Index: 72°   Visibility: 6mi
Dew Point: 63°   Wind: 1mph
Humidity: 73%   Direction: NA
Pressure: 30.09"   Gusts: NA
Location:  36.75°N, 3.02°W
Report Text: LEAM 202030Z VRB01KT CAVOK 22/17 Q1019
Loading
Personal Weather Stations






























Interactive Weather Map
Tropical Storm Tracking
New forecast layout! Learn more

10-Day Weather Forecast

Advertisements
Track Severe Weather on mobile